Time;durP1;ratioP1;P1;durP2;ratioP2;P2;SDS_P1;SDS_P2;PMS_P1;PMS_P2;Temp;Humidity;BMP_temperature;BMP_pressure;BME280_temperature;BME280_humidity;BME280_pressure;Samples;Min_cycle;Max_cycle;Signal;HPM_P1;HPM_P2
2022/07/15 00:01:29;;;;;;;3.50;2.05;;;;;;;18.63;53.52;96210.59;5028127;28;25029;-74
2022/07/15 00:03:55;;;;;;;5.18;2.05;;;;;;;18.55;53.83;96210.44;5025626;28;24464;-74
2022/07/15 00:06:22;;;;;;;5.18;1.98;;;;;;;18.56;54.21;96209.47;5028256;28;24435;-73
2022/07/15 00:08:49;;;;;;;5.25;1.60;;;;;;;18.40;54.76;96209.19;5025503;28;24440;-73
2022/07/15 00:11:16;;;;;;;4.03;2.40;;;;;;;18.41;55.02;96207.38;5020199;28;24798;-74
2022/07/15 00:13:42;;;;;;;2.75;1.90;;;;;;;18.37;54.87;96207.63;5024117;28;24819;-74
2022/07/15 00:16:09;;;;;;;3.07;2.03;;;;;;;18.18;55.42;96204.97;5028524;28;24462;-74
2022/07/15 00:18:35;;;;;;;5.70;1.80;;;;;;;18.13;55.23;96194.88;5026021;28;25095;-74
2022/07/15 00:21:02;;;;;;;2.72;1.80;;;;;;;18.20;54.94;96203.03;5023924;28;25031;-74
2022/07/15 00:23:29;;;;;;;5.20;2.42;;;;;;;18.35;54.53;96203.47;5024480;28;24969;-74
2022/07/15 00:25:57;;;;;;;4.78;2.00;;;;;;;18.25;54.80;96197.41;5028898;28;24443;-74
2022/07/15 00:28:24;;;;;;;3.35;2.22;;;;;;;18.10;55.57;96203.00;5022225;28;24428;-74
2022/07/15 00:30:51;;;;;;;3.47;1.70;;;;;;;18.03;55.68;96206.28;5019999;28;24562;-74
2022/07/15 00:33:17;;;;;;;5.40;1.92;;;;;;;18.13;55.45;96201.88;5023255;28;24522;-74
2022/07/15 00:35:43;;;;;;;3.20;2.05;;;;;;;18.00;55.80;96198.69;5027100;28;24456;-74
2022/07/15 00:38:10;;;;;;;3.78;1.80;;;;;;;17.98;56.18;96203.22;5023996;28;24447;-74
2022/07/15 00:40:40;;;;;;;4.25;1.92;;;;;;;17.89;56.41;96196.97;5026680;28;24439;-74
2022/07/15 00:43:08;;;;;;;3.30;1.60;;;;;;;17.91;55.97;96197.69;5016688;28;24807;-74
2022/07/15 00:45:34;;;;;;;4.13;1.90;;;;;;;18.04;55.87;96195.66;5025468;28;24447;-74
2022/07/15 00:48:01;;;;;;;3.75;2.20;;;;;;;18.07;56.14;96197.19;5023952;28;24436;-74
2022/07/15 00:50:29;;;;;;;4.63;1.83;;;;;;;17.79;56.89;96196.91;5027162;28;24993;-74
2022/07/15 00:53:00;;;;;;;2.90;1.83;;;;;;;17.70;56.87;96192.44;5028440;28;24435;-74
2022/07/15 00:55:30;;;;;;;6.30;2.45;;;;;;;17.69;57.30;96193.41;5030604;28;24451;-74
2022/07/15 00:58:02;;;;;;;3.58;2.20;;;;;;;17.63;57.66;96199.97;5027815;28;24431;-74
2022/07/15 01:00:31;;;;;;;3.85;1.98;;;;;;;17.64;57.62;96195.56;5030511;28;24467;-74
2022/07/15 01:02:59;;;;;;;4.23;2.23;;;;;;;17.85;57.24;96187.72;5028278;28;24435;-74
2022/07/15 01:05:26;;;;;;;3.10;2.07;;;;;;;17.74;57.94;96196.44;5030739;28;24428;-74
2022/07/15 01:07:53;;;;;;;5.68;2.65;;;;;;;17.49;59.08;96184.59;5028010;28;24428;-74
2022/07/15 01:10:21;;;;;;;5.00;2.08;;;;;;;17.29;59.07;96180.19;5024019;28;25171;-74
2022/07/15 01:12:49;;;;;;;4.47;1.88;;;;;;;17.27;59.09;96184.72;5028105;28;24428;-74
2022/07/15 01:15:16;;;;;;;4.18;2.03;;;;;;;17.31;58.78;96191.34;5029441;28;24458;-74
2022/07/15 01:17:46;;;;;;;3.20;1.77;;;;;;;17.35;59.22;96198.00;5023960;28;24482;-74
2022/07/15 01:20:13;;;;;;;5.35;2.20;;;;;;;17.28;59.03;96184.59;5026015;28;24818;-74
2022/07/15 01:22:41;;;;;;;2.87;2.00;;;;;;;17.45;58.38;96185.81;5024128;28;24928;-74
2022/07/15 01:25:08;;;;;;;7.00;2.08;;;;;;;17.53;57.92;96191.22;5030643;28;24431;-74
2022/07/15 01:27:35;;;;;;;6.28;2.50;;;;;;;17.49;58.01;96196.84;5027513;28;24428;-74
2022/07/15 01:30:01;;;;;;;3.75;1.80;;;;;;;17.52;58.05;96199.22;5030972;28;24431;-74
2022/07/15 01:32:28;;;;;;;2.63;1.90;;;;;;;17.53;58.15;96195.63;5026469;28;24520;-74
2022/07/15 01:34:55;;;;;;;4.77;2.17;;;;;;;17.45;58.85;96203.31;5030501;28;25070;-74
2022/07/15 01:37:21;;;;;;;3.25;1.90;;;;;;;17.36;59.30;96197.06;5027531;28;24432;-74
2022/07/15 01:39:49;;;;;;;4.85;1.98;;;;;;;17.29;59.44;96190.66;5030623;28;24431;-74
2022/07/15 01:42:15;;;;;;;4.45;1.95;;;;;;;17.21;59.68;96200.94;5027830;28;24493;-73
2022/07/15 01:44:42;;;;;;;3.20;2.10;;;;;;;17.14;60.22;96198.81;5030469;28;24431;-74
2022/07/15 01:47:08;;;;;;;4.72;2.13;;;;;;;17.08;60.31;96193.25;5026057;28;24822;-74
2022/07/15 01:49:34;;;;;;;3.58;2.08;;;;;;;17.13;59.88;96191.94;5030508;28;24442;-73
2022/07/15 01:52:03;;;;;;;4.43;2.10;;;;;;;17.23;59.83;96204.25;5027974;28;24428;-74
2022/07/15 01:54:32;;;;;;;2.60;1.98;;;;;;;17.30;59.29;96192.31;5028599;28;24436;-73
2022/07/15 01:57:00;;;;;;;7.45;2.15;;;;;;;17.23;59.88;96189.38;5025168;28;24459;-74
2022/07/15 01:59:27;;;;;;;3.92;2.03;;;;;;;17.14;60.24;96196.22;5031012;28;24435;-73
2022/07/15 02:01:54;;;;;;;2.40;1.83;;;;;;;16.97;61.54;96196.75;5027817;28;25009;-74
2022/07/15 02:04:21;;;;;;;3.90;2.10;;;;;;;16.88;61.76;96195.72;5031027;28;24455;-73
2022/07/15 02:06:48;;;;;;;7.85;1.98;;;;;;;16.85;61.66;96195.13;5028345;28;24428;-74
2022/07/15 02:09:14;;;;;;;4.10;2.10;;;;;;;16.86;62.11;96194.19;5030585;28;24424;-74
2022/07/15 02:11:41;;;;;;;2.97;2.08;;;;;;;16.91;61.79;96194.66;5015272;28;24443;-74
2022/07/15 02:14:09;;;;;;;3.10;1.75;;;;;;;16.87;62.03;96194.06;5031098;28;24450;-74
2022/07/15 02:16:36;;;;;;;4.03;1.92;;;;;;;16.91;61.74;96186.81;5022859;28;24452;-73
2022/07/15 02:19:02;;;;;;;5.97;2.08;;;;;;;16.93;61.72;96190.09;5030755;28;24428;-75
2022/07/15 02:21:29;;;;;;;2.72;1.73;;;;;;;16.80;62.17;96184.22;5023650;28;24490;-74
2022/07/15 02:23:57;;;;;;;2.83;2.00;;;;;;;16.80;62.54;96184.22;5030974;28;24442;-74
2022/07/15 02:26:23;;;;;;;2.75;1.88;;;;;;;16.81;62.48;96183.25;5024881;28;24511;-74
2022/07/15 02:28:50;;;;;;;3.80;2.20;;;;;;;16.86;62.30;96188.94;5022821;28;24435;-74
2022/07/15 02:31:18;;;;;;;3.80;2.22;;;;;;;16.90;62.21;96190.34;5025698;28;24565;-75
2022/07/15 02:33:44;;;;;;;3.83;2.45;;;;;;;16.95;61.90;96190.00;5029732;28;24535;-73
2022/07/15 02:36:12;;;;;;;3.33;2.10;;;;;;;17.04;61.58;96190.06;5026368;28;24463;-74
2022/07/15 02:38:40;;;;;;;3.92;1.90;;;;;;;16.78;62.44;96180.91;5027570;28;24493;-74
2022/07/15 02:41:07;;;;;;;4.38;2.15;;;;;;;16.61;62.04;96195.28;5018841;28;25205;-74
2022/07/15 02:43:33;;;;;;;6.03;2.20;;;;;;;16.43;62.78;96185.38;5028020;28;24489;-73
2022/07/15 02:46:00;;;;;;;3.53;1.90;;;;;;;16.05;64.37;96187.53;5025910;28;24435;-74
2022/07/15 02:48:28;;;;;;;4.57;1.75;;;;;;;16.10;64.04;96186.25;5028635;28;24454;-74
2022/07/15 02:50:55;;;;;;;3.53;2.07;;;;;;;15.61;66.34;96187.38;5026294;28;24439;-73
2022/07/15 02:53:25;;;;;;;2.70;1.93;;;;;;;15.51;66.52;96189.03;5028968;28;24858;-73
2022/07/15 02:55:52;;;;;;;2.72;1.85;;;;;;;15.56;66.19;96192.13;5026166;28;24849;-74
2022/07/15 02:58:18;;;;;;;3.35;1.90;;;;;;;15.40;67.50;96195.06;5028626;28;24829;-74
2022/07/15 03:00:45;;;;;;;6.10;2.35;;;;;;;15.41;67.44;96199.31;5026340;28;24794;-73
2022/07/15 03:03:11;;;;;;;7.57;2.20;;;;;;;15.26;68.81;96203.09;5029038;28;25028;-74
2022/07/15 03:05:39;;;;;;;5.38;2.22;;;;;;;15.13;69.94;96199.72;5026728;28;24440;-73
2022/07/15 03:08:06;;;;;;;3.13;2.10;;;;;;;15.21;68.99;96189.56;5023001;28;24432;-74
2022/07/15 03:10:32;;;;;;;2.92;1.90;;;;;;;15.23;69.20;96193.69;5026526;28;24436;-74
2022/07/15 03:12:59;;;;;;;3.42;2.30;;;;;;;15.24;69.69;96200.59;5022809;28;24804;-74
2022/07/15 03:15:26;;;;;;;2.70;2.20;;;;;;;15.32;69.61;96204.41;5026083;28;24523;-74
2022/07/15 03:17:52;;;;;;;6.38;2.45;;;;;;;15.52;68.36;96203.72;5029059;28;24431;-74
2022/07/15 03:20:19;;;;;;;4.95;2.00;;;;;;;15.39;69.24;96203.00;5024631;28;24440;-74
2022/07/15 03:22:47;;;;;;;3.50;2.05;;;;;;;15.31;69.38;96221.81;5029308;28;24439;-74
2022/07/15 03:25:13;;;;;;;4.68;2.33;;;;;;;15.15;69.72;96209.09;5026589;28;24440;-74
2022/07/15 03:27:39;;;;;;;5.40;2.30;;;;;;;15.29;68.13;96202.03;5021214;28;24992;-74
2022/07/15 03:30:07;;;;;;;6.32;2.25;;;;;;;14.43;73.22;96213.47;5024017;28;24435;-74
2022/07/15 03:32:34;;;;;;;6.43;2.63;;;;;;;14.70;71.18;96208.09;5021306;28;24436;-74
2022/07/15 03:35:00;;;;;;;3.10;2.10;;;;;;;14.14;75.52;96210.31;5024025;28;24432;-74
2022/07/15 03:37:27;;;;;;;3.58;2.20;;;;;;;14.40;73.67;96206.69;5028691;28;24456;-74
2022/07/15 03:39:54;;;;;;;4.35;2.40;;;;;;;14.28;75.78;96208.41;5026493;28;24443;-73
2022/07/15 03:42:21;;;;;;;2.97;2.22;;;;;;;14.54;74.03;96210.97;5026598;28;24462;-74
2022/07/15 03:44:47;;;;;;;4.00;2.37;;;;;;;14.55;73.32;96209.19;5015419;28;24563;-74
2022/07/15 03:47:14;;;;;;;3.03;1.95;;;;;;;14.39;74.11;96207.66;5020823;28;24435;-74
2022/07/15 03:49:41;;;;;;;2.80;2.05;;;;;;;14.34;74.88;96206.28;5023926;28;24448;-74
2022/07/15 03:52:08;;;;;;;4.03;2.10;;;;;;;14.34;75.32;96216.72;5014202;28;24487;-74
2022/07/15 03:54:35;;;;;;;3.80;2.22;;;;;;;14.49;74.63;96210.41;5026480;28;24448;-73
2022/07/15 03:57:03;;;;;;;3.70;2.25;;;;;;;14.66;73.84;96215.28;5015190;28;24799;-74
2022/07/15 03:59:29;;;;;;;3.75;2.30;;;;;;;14.80;72.74;96213.47;5022139;28;24435;-74
2022/07/15 04:01:56;;;;;;;4.78;2.50;;;;;;;14.71;72.83;96209.75;5028791;28;24432;-73
2022/07/15 04:04:22;;;;;;;7.63;2.30;;;;;;;14.68;74.02;96208.22;5011403;28;24436;-74
2022/07/15 04:06:49;;;;;;;2.78;2.10;;;;;;;14.81;73.22;96212.53;5028309;28;24428;-73
2022/07/15 04:09:15;;;;;;;3.10;1.88;;;;;;;14.57;74.65;96213.31;5024421;28;24432;-73
2022/07/15 04:11:42;;;;;;;7.68;2.10;;;;;;;14.64;74.94;96211.94;5021471;28;24497;-74
2022/07/15 04:14:12;;;;;;;5.20;2.67;;;;;;;14.69;74.47;96219.47;5025191;28;24512;-74
2022/07/15 04:16:38;;;;;;;5.55;2.50;;;;;;;14.67;74.76;96222.16;5027868;28;24555;-74
2022/07/15 04:19:05;;;;;;;3.92;2.35;;;;;;;14.93;73.18;96222.06;5022562;28;24486;-74
2022/07/15 04:21:31;;;;;;;3.90;2.05;;;;;;;14.81;74.61;96215.97;5028141;28;24522;-74
2022/07/15 04:23:58;;;;;;;4.38;2.10;;;;;;;15.01;73.78;96222.31;5024945;28;24467;-74
2022/07/15 04:26:25;;;;;;;3.55;2.42;;;;;;;14.92;74.75;96223.00;5030809;28;24428;-74
2022/07/15 04:28:52;;;;;;;2.97;2.30;;;;;;;14.94;75.38;96223.72;5023322;28;24440;-74
2022/07/15 04:31:20;;;;;;;4.18;2.58;;;;;;;14.83;76.55;96221.03;5027899;28;24948;-74
2022/07/15 04:33:46;;;;;;;2.45;2.00;;;;;;;14.72;77.06;96219.22;5028814;28;24454;-73
2022/07/15 04:36:13;;;;;;;4.55;2.03;;;;;;;14.66;77.22;96212.69;5031522;28;24469;-73
2022/07/15 04:38:39;;;;;;;3.97;2.05;;;;;;;14.70;76.05;96214.13;5032598;28;24837;-74
2022/07/15 04:41:06;;;;;;;5.40;2.15;;;;;;;14.73;76.27;96210.47;5031064;28;24432;-73
2022/07/15 04:43:32;;;;;;;4.28;3.10;;;;;;;14.91;75.78;96221.34;5024754;28;24635;-74
2022/07/15 04:45:59;;;;;;;4.30;2.70;;;;;;;15.05;75.52;96225.53;5024585;28;24443;-73
2022/07/15 04:51:10;;;;;;;4.50;2.88;;;;;;;15.11;77.32;96227.69;5028795;28;24443;-73
2022/07/15 04:53:37;;;;;;;4.00;2.80;;;;;;;15.23;76.67;96217.19;5031438;28;25062;-73
2022/07/15 04:56:04;;;;;;;8.20;2.55;;;;;;;15.18;77.78;96226.31;5029140;28;24435;-73
2022/07/15 04:58:30;;;;;;;4.30;2.42;;;;;;;15.32;76.58;96220.06;5031539;28;24431;-73
2022/07/15 05:00:57;;;;;;;7.70;2.88;;;;;;;15.52;77.06;96214.19;5028705;28;24439;-73
2022/07/15 05:03:23;;;;;;;5.70;2.35;;;;;;;15.59;77.76;96217.16;5032089;28;24443;-73
2022/07/15 05:05:51;;;;;;;4.25;2.60;;;;;;;15.79;76.21;96218.28;5028119;28;25006;-73
2022/07/15 05:08:17;;;;;;;5.65;3.00;;;;;;;15.90;74.42;96220.91;5039785;28;24430;-73
2022/07/15 05:10:44;;;;;;;17.10;13.98;;;;;;;15.95;74.29;96213.56;5034865;28;24468;-73
2022/07/15 05:13:10;;;;;;;10.30;6.40;;;;;;;16.01;74.36;96214.84;5029595;28;24771;-73
2022/07/15 05:15:37;;;;;;;4.22;2.85;;;;;;;16.14;74.59;96221.63;5028744;28;24433;-73
2022/07/15 05:18:04;;;;;;;3.13;2.38;;;;;;;16.28;74.17;96222.31;5028464;28;24448;-73
2022/07/15 05:20:30;;;;;;;3.88;2.63;;;;;;;16.35;73.31;96226.09;5036927;28;24435;-72
2022/07/15 05:22:58;;;;;;;4.93;2.53;;;;;;;16.39;72.88;96223.16;5031079;28;24431;-73
2022/07/15 05:25:24;;;;;;;3.40;2.42;;;;;;;16.53;71.15;96221.22;5031299;28;24439;-73
2022/07/15 05:27:51;;;;;;;3.22;2.53;;;;;;;16.64;68.58;96231.66;5023739;28;24432;-73
2022/07/15 05:30:18;;;;;;;5.90;3.25;;;;;;;16.45;69.14;96227.06;5026066;28;24983;-73
2022/07/15 05:32:45;;;;;;;6.23;3.33;;;;;;;16.36;69.78;96222.56;5028796;28;24475;-73
2022/07/15 05:35:14;;;;;;;4.75;2.60;;;;;;;16.48;69.53;96234.66;5029051;28;24525;-73
2022/07/15 05:37:41;;;;;;;5.25;3.00;;;;;;;16.55;68.53;96230.63;5026261;28;24853;-72
2022/07/15 05:40:10;;;;;;;5.80;2.63;;;;;;;16.55;68.50;96235.84;5026610;28;24439;-72
2022/07/15 05:42:38;;;;;;;5.45;2.45;;;;;;;16.86;67.93;96233.41;5031292;28;24451;-72
2022/07/15 05:45:06;;;;;;;5.50;2.50;;;;;;;17.06;66.66;96239.69;5027867;28;24786;-72
2022/07/15 05:47:32;;;;;;;6.75;2.60;;;;;;;17.38;65.65;96244.88;5030265;28;24427;-73
2022/07/15 05:49:59;;;;;;;5.32;2.70;;;;;;;17.60;64.51;96236.91;5027224;28;24451;-73
2022/07/15 05:52:26;;;;;;;3.40;2.58;;;;;;;17.83;64.31;96231.53;5030626;28;24436;-73
2022/07/15 05:54:52;;;;;;;3.65;2.40;;;;;;;17.87;62.58;96235.56;5028479;28;24428;-74
2022/07/15 05:57:20;;;;;;;4.28;2.60;;;;;;;17.89;63.03;96234.47;5026431;28;24447;-75
2022/07/15 05:59:47;;;;;;;3.72;2.65;;;;;;;17.90;62.60;96233.50;5030400;28;24431;-75
2022/07/15 06:02:13;;;;;;;5.43;2.55;;;;;;;17.85;62.34;96235.69;5030887;28;24451;-75
2022/07/15 06:04:40;;;;;;;3.63;2.53;;;;;;;18.02;62.34;96239.53;5020567;28;24485;-75
2022/07/15 06:07:07;;;;;;;4.43;2.20;;;;;;;18.23;61.04;96234.22;5026661;28;24428;-74
2022/07/15 06:09:33;;;;;;;4.18;2.00;;;;;;;18.47;61.24;96236.53;5023074;28;24442;-72
2022/07/15 06:11:59;;;;;;;3.58;2.40;;;;;;;18.53;60.17;96243.84;5022899;28;24982;-72
2022/07/15 06:14:27;;;;;;;3.90;2.40;;;;;;;18.60;59.14;96242.34;5029127;28;24973;-72
2022/07/15 06:16:54;;;;;;;4.68;2.10;;;;;;;18.77;61.09;96243.53;5025829;28;24456;-74
2022/07/15 06:19:20;;;;;;;5.72;2.60;;;;;;;18.60;58.81;96246.75;5026984;28;24424;-73
2022/07/15 06:21:46;;;;;;;9.07;2.60;;;;;;;18.90;57.58;96250.31;5023576;28;24475;-74
2022/07/15 06:24:13;;;;;;;4.05;2.17;;;;;;;19.20;56.75;96252.00;5023228;28;24997;-73
2022/07/15 06:26:39;;;;;;;3.75;2.28;;;;;;;19.43;55.59;96242.91;5019036;28;24447;-73
2022/07/15 06:29:06;;;;;;;3.60;2.20;;;;;;;19.50;54.82;96243.97;5020255;28;24468;-77
2022/07/15 06:31:34;;;;;;;3.13;2.00;;;;;;;19.36;52.35;96249.66;5025410;28;24436;-73
2022/07/15 06:34:00;;;;;;;3.95;2.40;;;;;;;19.14;54.03;96245.50;5039603;28;24456;-73
2022/07/15 06:36:27;;;;;;;2.97;2.17;;;;;;;19.16;54.39;96240.13;5032510;28;24441;-74
2022/07/15 06:38:54;;;;;;;4.40;2.50;;;;;;;19.37;53.71;96246.06;5022735;28;24874;-72
2022/07/15 06:41:20;;;;;;;6.70;2.30;;;;;;;19.81;54.56;96238.56;5023037;28;24484;-73
2022/07/15 06:43:46;;;;;;;5.50;2.22;;;;;;;20.23;53.81;96243.44;5025688;28;24433;-73
2022/07/15 06:46:13;;;;;;;4.38;2.13;;;;;;;20.60;53.84;96234.72;5025339;28;24466;-74
2022/07/15 06:48:41;;;;;;;4.00;2.20;;;;;;;20.79;49.98;96230.16;5026768;28;24435;-74
2022/07/15 06:51:08;;;;;;;6.30;2.50;;;;;;;20.50;47.16;96227.69;5029692;28;25012;-74
2022/07/15 06:53:36;;;;;;;5.60;2.40;;;;;;;21.10;46.86;96235.09;5025372;28;25012;-75
2022/07/15 06:56:02;;;;;;;5.23;2.10;;;;;;;21.15;45.29;96234.63;5030221;28;24538;-75
2022/07/15 06:58:29;;;;;;;4.25;1.80;;;;;;;21.38;44.57;96233.22;5028276;28;24455;-75
2022/07/15 07:00:56;;;;;;;4.07;1.95;;;;;;;21.60;42.00;96228.44;5025466;28;24996;-75
2022/07/15 07:03:22;;;;;;;4.20;1.60;;;;;;;21.72;42.12;96227.22;5029872;28;24434;-74
2022/07/15 07:05:52;;;;;;;2.08;1.30;;;;;;;22.16;40.28;96237.75;5025544;28;21299;-75
2022/07/15 07:08:18;;;;;;;2.28;1.58;;;;;;;22.33;39.92;96226.31;5028410;28;24435;-75
2022/07/15 07:10:45;;;;;;;3.00;1.70;;;;;;;22.47;39.87;96227.50;5026128;28;24974;-74
2022/07/15 07:13:11;;;;;;;2.50;1.50;;;;;;;22.27;40.00;96224.28;5028687;28;24428;-74
2022/07/15 07:15:38;;;;;;;1.90;1.23;;;;;;;22.27;37.79;96216.38;5026404;28;24475;-75
2022/07/15 07:18:04;;;;;;;2.92;1.60;;;;;;;22.35;37.13;96218.22;5028357;28;25080;-75
2022/07/15 07:20:31;;;;;;;2.80;1.35;;;;;;;22.70;38.31;96222.47;5026055;28;24443;-74
2022/07/15 07:22:59;;;;;;;4.73;1.70;;;;;;;22.75;37.33;96222.81;5029345;28;24466;-75
2022/07/15 07:25:25;;;;;;;7.10;1.92;;;;;;;22.73;35.53;96232.72;5024412;28;24432;-74
2022/07/15 07:27:52;;;;;;;4.95;1.40;;;;;;;22.62;36.12;96222.44;5028498;28;24427;-75
2022/07/15 07:30:19;;;;;;;3.53;1.50;;;;;;;22.65;35.24;96230.03;5026531;28;24861;-75
2022/07/15 07:32:46;;;;;;;3.45;1.50;;;;;;;22.61;36.94;96229.53;5029098;28;24988;-74
2022/07/15 07:35:12;;;;;;;3.08;1.38;;;;;;;22.88;36.23;96227.66;5026550;28;24440;-75
2022/07/15 07:37:40;;;;;;;2.42;1.40;;;;;;;22.80;35.47;96220.50;5021210;28;24448;-74
2022/07/15 07:40:09;;;;;;;3.10;1.63;;;;;;;22.72;36.78;96231.06;5026319;28;24872;-75
2022/07/15 07:42:35;;;;;;;2.85;1.65;;;;;;;22.67;35.80;96225.44;5028807;28;24484;-74
2022/07/15 07:45:02;;;;;;;2.70;1.35;;;;;;;22.89;36.07;96226.66;5026638;28;24519;-74
2022/07/15 07:47:29;;;;;;;4.28;1.70;;;;;;;22.70;36.99;96228.59;5013083;28;24535;-75
2022/07/15 07:49:56;;;;;;;2.97;1.30;;;;;;;22.57;34.21;96222.91;5027123;28;24442;-74
2022/07/15 07:52:22;;;;;;;2.72;1.55;;;;;;;22.76;36.84;96227.09;5028340;28;24436;-74
2022/07/15 07:54:49;;;;;;;5.57;1.90;;;;;;;23.03;35.35;96230.53;5023607;28;24447;-74
2022/07/15 07:57:17;;;;;;;6.13;1.58;;;;;;;22.88;34.98;96219.72;5021242;28;25048;-75
2022/07/15 07:59:43;;;;;;;1.90;1.38;;;;;;;22.99;37.01;96219.47;5015847;28;24514;-74
2022/07/15 08:02:09;;;;;;;4.18;1.50;;;;;;;23.50;33.99;96227.25;5033365;28;24443;-74
2022/07/15 08:04:36;;;;;;;3.40;1.70;;;;;;;23.10;34.20;96219.16;5019163;28;24791;-75
2022/07/15 08:07:05;;;;;;;4.38;1.63;;;;;;;23.66;36.66;96220.19;5033159;28;24439;-75
2022/07/15 08:09:31;;;;;;;2.92;1.70;;;;;;;24.13;34.83;96218.59;5018616;28;24830;-75
2022/07/15 08:11:58;;;;;;;2.83;1.50;;;;;;;24.21;36.93;96220.41;5033191;28;25008;-75
2022/07/15 08:14:27;;;;;;;2.70;1.40;;;;;;;24.29;34.08;96218.56;5027532;28;24439;-73
2022/07/15 08:16:54;;;;;;;4.03;1.48;;;;;;;24.26;34.97;96218.09;5027310;28;24428;-74
2022/07/15 08:19:20;;;;;;;2.42;1.33;;;;;;;24.21;35.96;96223.88;5019448;28;24456;-74
2022/07/15 08:21:47;;;;;;;11.20;1.90;;;;;;;24.10;33.02;96222.44;5031300;28;24984;-74
2022/07/15 08:24:14;;;;;;;3.45;1.52;;;;;;;24.20;35.63;96214.28;5029103;28;24431;-74
2022/07/15 08:26:40;;;;;;;2.95;1.70;;;;;;;24.09;36.35;96209.34;5032050;28;24438;-74
2022/07/15 08:29:07;;;;;;;3.30;1.60;;;;;;;24.54;35.16;96211.38;5028860;28;24817;-75
2022/07/15 08:31:35;;;;;;;5.60;1.67;;;;;;;24.52;34.64;96209.91;5025965;28;24441;-73
2022/07/15 08:34:02;;;;;;;3.70;1.40;;;;;;;24.90;34.39;96204.75;5030333;28;24531;-73
2022/07/15 08:36:30;;;;;;;2.60;1.40;;;;;;;24.80;33.67;96208.44;5027460;28;24996;-73
2022/07/15 08:38:56;;;;;;;2.70;1.50;;;;;;;24.52;33.88;96212.56;5020221;28;25052;-73
2022/07/15 08:41:23;;;;;;;3.70;1.73;;;;;;;24.78;33.42;96217.56;5025921;28;24444;-73
2022/07/15 08:43:49;;;;;;;2.53;1.60;;;;;;;24.34;32.63;96215.41;5024305;28;24548;-74
2022/07/15 08:46:16;;;;;;;4.15;1.75;;;;;;;24.51;35.07;96219.69;5020562;28;24530;-73
2022/07/15 08:48:50;;;;;;;3.38;1.95;;;;;;;24.97;35.97;96218.94;5028083;28;24535;-73
2022/07/15 08:51:22;;;;;;;3.13;1.75;;;;;;;25.10;34.01;96211.25;5016953;28;24539;-73
2022/07/15 08:53:49;;;;;;;2.53;1.90;;;;;;;25.04;33.87;96223.38;5023423;28;24436;-73
2022/07/15 08:56:18;;;;;;;3.45;2.03;;;;;;;25.26;34.20;96216.47;5022452;28;24436;-74
2022/07/15 08:58:45;;;;;;;4.40;2.07;;;;;;;25.31;34.06;96216.75;5022241;28;24539;-73
2022/07/15 09:01:11;;;;;;;5.45;2.10;;;;;;;25.44;33.65;96215.31;5015033;28;24475;-73
2022/07/15 09:03:38;;;;;;;3.13;2.15;;;;;;;25.48;34.78;96219.28;5029459;28;24443;-73
2022/07/15 09:06:06;;;;;;;3.90;1.85;;;;;;;25.47;33.49;96221.09;5031574;28;24498;-74
2022/07/15 09:08:34;;;;;;;3.85;1.80;;;;;;;25.65;33.45;96225.28;5028553;28;24802;-74
2022/07/15 09:11:01;;;;;;;3.78;2.13;;;;;;;24.87;31.60;96217.31;5025343;28;24447;-74
2022/07/15 09:13:31;;;;;;;3.63;2.00;;;;;;;25.18;33.90;96224.47;5027031;28;24489;-74
2022/07/15 09:15:59;;;;;;;3.20;1.70;;;;;;;25.34;32.22;96215.56;5035374;28;24439;-74
2022/07/15 09:18:28;;;;;;;3.30;1.50;;;;;;;25.47;32.18;96217.63;5028891;28;24456;-74
2022/07/15 09:20:55;;;;;;;3.38;2.03;;;;;;;25.19;32.45;96212.03;5031710;28;25015;-74
2022/07/15 09:23:29;;;;;;;3.20;1.80;;;;;;;24.71;32.49;96211.31;5027988;28;24428;-74
2022/07/15 09:25:56;;;;;;;4.80;1.80;;;;;;;25.12;35.87;96209.28;5032216;28;24773;-74
2022/07/15 09:28:37;;;;;;;4.95;2.00;;;;;;;25.64;32.65;96220.97;5022441;28;24533;-74
2022/07/15 09:33:51;;;;;;;4.65;1.90;;;;;;;25.81;31.53;96211.91;5012902;28;24490;-74
2022/07/15 09:36:20;;;;;;;3.05;1.80;;;;;;;26.05;32.87;96211.66;5022008;28;24443;-74
2022/07/15 09:38:50;;;;;;;2.75;1.98;;;;;;;25.74;32.46;96221.56;5026823;28;24464;-74
2022/07/15 09:41:29;;;;;;;3.28;1.70;;;;;;;24.87;32.65;96216.50;5029679;28;24438;-74
2022/07/15 09:43:58;;;;;;;4.07;2.10;;;;;;;23.52;34.35;96225.28;5030113;28;24455;-74
2022/07/15 09:46:27;;;;;;;3.20;1.77;;;;;;;23.93;34.38;96212.03;5021414;28;24513;-75
2022/07/15 09:48:54;;;;;;;4.15;1.85;;;;;;;23.53;35.23;96217.16;5024215;28;24435;-74
2022/07/15 09:51:22;;;;;;;4.05;1.95;;;;;;;23.60;34.90;96219.97;5025258;28;24443;-74
2022/07/15 09:53:51;;;;;;;2.97;1.70;;;;;;;23.81;34.68;96220.34;5023509;28;24443;-74
2022/07/15 09:56:22;;;;;;;2.67;1.70;;;;;;;24.24;34.22;96215.59;5026913;28;25020;-74
2022/07/15 09:58:49;;;;;;;4.20;1.90;;;;;;;24.45;34.13;96209.75;5027884;28;24447;-74
2022/07/15 10:01:16;;;;;;;4.87;1.67;;;;;;;24.02;34.84;96225.06;5030674;28;24997;-74
2022/07/15 10:03:42;;;;;;;2.83;1.85;;;;;;;24.38;35.57;96220.19;5031655;28;24427;-75
2022/07/15 10:06:14;;;;;;;3.92;1.70;;;;;;;24.66;35.12;96214.47;5031348;28;24443;-75
2022/07/15 10:08:41;;;;;;;4.28;1.88;;;;;;;24.85;35.20;96216.69;5029992;28;24968;-75
2022/07/15 10:11:13;;;;;;;4.97;2.05;;;;;;;25.35;37.63;96212.72;5033745;28;24575;-75
2022/07/15 10:14:02;;;;;;;5.13;1.70;;;;;;;25.66;36.10;96208.34;5027757;28;24462;-75
2022/07/15 10:16:43;;;;;;;10.13;2.38;;;;;;;25.38;36.11;96203.59;5030528;28;24439;-75
2022/07/15 10:19:20;;;;;;;5.20;1.85;;;;;;;25.63;35.72;96209.53;5028449;28;25017;-75
2022/07/15 10:21:58;;;;;;;3.95;2.08;;;;;;;24.78;34.40;96201.66;5023468;28;24806;-75
2022/07/15 10:24:43;;;;;;;3.20;1.80;;;;;;;24.08;34.46;96205.06;5021768;28;24459;-74
2022/07/15 10:27:28;;;;;;;4.72;1.83;;;;;;;23.89;34.93;96204.44;5017329;28;24516;-78
2022/07/15 10:29:56;;;;;;;2.90;1.67;;;;;;;24.35;33.69;96203.81;5029761;28;24432;-75
2022/07/15 10:32:23;;;;;;;10.05;1.83;;;;;;;24.74;35.63;96190.59;5018225;28;24443;-75
2022/07/15 10:34:49;;;;;;;4.30;1.93;;;;;;;25.46;34.18;96200.06;5032479;28;24435;-77
2022/07/15 10:37:16;;;;;;;2.80;2.00;;;;;;;25.43;34.06;96184.50;5030331;28;24490;-77
2022/07/15 10:39:53;;;;;;;5.82;1.90;;;;;;;25.74;33.61;96195.84;5028012;28;24454;-77
2022/07/15 10:42:22;;;;;;;3.40;1.63;;;;;;;25.75;34.33;96192.19;5025356;28;24997;-78
2022/07/15 10:44:51;;;;;;;4.47;2.10;;;;;;;25.38;33.35;96194.84;5024088;28;24446;-77
2022/07/15 10:47:19;;;;;;;4.25;2.05;;;;;;;24.75;34.71;96196.72;5026830;28;24857;-78
2022/07/15 10:49:47;;;;;;;2.67;2.00;;;;;;;24.46;34.98;96184.09;5023878;28;24465;-77
2022/07/15 10:52:15;;;;;;;3.75;1.92;;;;;;;24.46;36.13;96184.94;5023582;28;24451;-77
2022/07/15 10:54:50;;;;;;;3.13;1.75;;;;;;;24.96;35.68;96185.50;5033483;28;24444;-76
2022/07/15 10:57:20;;;;;;;3.38;1.83;;;;;;;25.64;33.64;96182.00;5022928;28;24512;-77
2022/07/15 10:59:54;;;;;;;3.85;1.90;;;;;;;24.68;34.45;96183.34;5028663;28;24455;-75
2022/07/15 11:02:22;;;;;;;5.13;2.40;;;;;;;24.82;34.86;96174.66;5025498;28;24505;-74
2022/07/15 11:04:50;;;;;;;3.28;1.67;;;;;;;25.02;36.97;96172.34;5029699;28;24443;-74
2022/07/15 11:07:31;;;;;;;5.15;2.03;;;;;;;25.67;36.93;96165.75;5025833;28;24523;-74
2022/07/15 11:10:15;;;;;;;4.65;1.90;;;;;;;25.40;34.86;96171.59;5018104;28;24464;-74
2022/07/15 11:13:03;;;;;;;5.00;2.00;;;;;;;24.56;36.46;96168.84;5017166;28;24486;-74
2022/07/15 11:15:33;;;;;;;3.08;1.70;;;;;;;24.80;35.42;96167.88;5026288;28;24458;-74
2022/07/15 11:18:00;;;;;;;3.60;1.70;;;;;;;24.92;36.34;96171.78;5028396;28;24468;-74
2022/07/15 11:20:30;;;;;;;4.13;1.90;;;;;;;24.72;35.88;96174.03;5017049;28;24483;-75
2022/07/15 11:22:58;;;;;;;3.80;2.20;;;;;;;25.03;36.82;96163.44;5023586;28;24526;-73
2022/07/15 11:25:26;;;;;;;4.30;1.90;;;;;;;24.94;35.68;96174.25;5017087;28;24978;-74
2022/07/15 11:28:04;;;;;;;5.60;2.00;;;;;;;24.87;36.05;96171.47;5022622;28;24492;-74
2022/07/15 11:30:35;;;;;;;7.13;2.15;;;;;;;24.28;36.45;96168.44;5024133;28;24443;-74
2022/07/15 11:33:04;;;;;;;3.58;2.38;;;;;;;24.71;36.94;96161.81;5027547;28;24977;-73
2022/07/15 11:35:30;;;;;;;3.78;2.05;;;;;;;24.86;37.41;96165.34;5011919;28;24535;-74
2022/07/15 11:38:03;;;;;;;4.82;2.13;;;;;;;24.05;37.38;96169.19;5019647;28;26179;-73
2022/07/15 11:46:05;;;;;;;4.80;2.10;;;;;;;24.90;38.34;96154.41;5025107;28;24470;-73
2022/07/15 11:48:37;;;;;;;3.85;1.90;;;;;;;25.34;35.18;96171.31;5027585;28;24523;-73